createdAt,value
2019-02-04T00:00:49.435Z,1.42
2019-02-04T00:02:52.778Z,1.29
2019-02-04T00:04:54.532Z,1.34
2019-02-04T00:06:56.191Z,1.27
2019-02-04T00:08:57.919Z,1.19
2019-02-04T00:10:59.584Z,1.15
2019-02-04T00:13:01.266Z,1.18
2019-02-04T00:15:06.995Z,1.17
2019-02-04T00:17:09.139Z,1.19
2019-02-04T00:19:10.857Z,1.16
2019-02-04T00:21:12.743Z,1.17
2019-02-04T00:23:14.421Z,1.05
2019-02-04T00:25:16.116Z,1.05
2019-02-04T00:27:17.837Z,1.04
2019-02-04T00:29:19.631Z,1.13
2019-02-04T00:31:21.489Z,1.07
2019-02-04T00:33:23.195Z,1.05
2019-02-04T00:35:25.081Z,1.07
2019-02-04T00:37:26.744Z,1.10
2019-02-04T00:39:28.798Z,1.05
2019-02-04T00:41:30.594Z,1.04
2019-02-04T00:43:32.451Z,1.04
2019-02-04T00:45:34.185Z,1.02
2019-02-04T00:47:35.572Z,0.97
2019-02-04T00:49:36.963Z,1.05
2019-02-04T00:51:38.448Z,0.87
2019-02-04T00:53:39.819Z,0.93
2019-02-04T00:55:41.188Z,0.93
2019-02-04T00:57:42.628Z,0.76
2019-02-04T00:59:43.999Z,0.66
2019-02-04T01:01:45.384Z,0.86
2019-02-04T01:03:46.907Z,1.00
2019-02-04T01:05:48.281Z,0.77
2019-02-04T01:07:49.960Z,0.83
2019-02-04T01:09:52.041Z,0.95
2019-02-04T01:11:53.416Z,0.91
2019-02-04T01:13:54.784Z,1.07
2019-02-04T01:15:56.286Z,1.04
2019-02-04T01:17:58.276Z,1.04
2019-02-04T01:19:59.706Z,1.08
2019-02-04T01:22:01.291Z,1.01
2019-02-04T01:24:03.055Z,0.96
2019-02-04T01:26:04.605Z,0.85
2019-02-04T01:28:05.967Z,0.88
2019-02-04T01:30:20.040Z,0.88
2019-02-04T01:32:21.446Z,0.86
2019-02-04T01:34:22.815Z,0.86
2019-02-04T01:36:24.201Z,0.85
2019-02-04T01:38:26.027Z,0.86
2019-02-04T01:40:27.390Z,0.84
2019-02-04T01:42:28.817Z,0.80
2019-02-04T01:44:30.190Z,0.82
2019-02-04T01:46:31.548Z,0.87
2019-02-04T01:48:32.958Z,0.79
2019-02-04T01:50:34.321Z,0.83
2019-02-04T01:52:35.746Z,0.60
2019-02-04T01:54:37.113Z,0.42
2019-02-04T01:56:38.475Z,0.30
2019-02-04T01:58:40.062Z,0.23
2019-02-04T02:00:41.434Z,0.14
2019-02-04T02:02:42.797Z,0.13
2019-02-04T02:04:44.765Z,0.11
2019-02-04T02:06:46.156Z,0.09
2019-02-04T02:08:47.528Z,-0.01
2019-02-04T02:10:49.196Z,-0.05
2019-02-04T02:12:51.060Z,-0.02
2019-02-04T02:14:52.446Z,-0.02
2019-02-04T02:16:54.084Z,-0.03
2019-02-04T02:18:55.633Z,-0.02
2019-02-04T02:20:57.011Z,-0.05
2019-02-04T02:22:58.690Z,-0.02
2019-02-04T02:25:00.144Z,-0.02
2019-02-04T02:27:01.633Z,0.00
2019-02-04T02:29:03.175Z,-0.03
2019-02-04T02:31:04.844Z,-0.06
2019-02-04T02:33:06.223Z,-0.18
2019-02-04T02:35:09.755Z,-0.15
2019-02-04T02:37:11.138Z,-0.21
2019-02-04T02:39:12.665Z,-0.21
2019-02-04T02:41:14.024Z,-0.24
2019-02-04T02:43:15.386Z,-0.28
2019-02-04T02:45:16.895Z,-0.27
2019-02-04T02:47:18.278Z,-0.32
2019-02-04T02:49:19.644Z,-0.35
2019-02-04T02:51:21.049Z,-0.34
2019-02-04T02:53:22.465Z,-0.36
2019-02-04T02:55:23.933Z,-0.38
2019-02-04T02:57:25.696Z,-0.43
2019-02-04T02:59:27.064Z,-0.49
2019-02-04T03:01:28.639Z,-0.32
2019-02-04T03:03:30.011Z,-0.43
2019-02-04T03:05:31.684Z,-0.41
2019-02-04T03:07:33.109Z,-0.33
2019-02-04T03:09:34.499Z,-0.35
2019-02-04T03:11:35.853Z,-0.41
2019-02-04T03:13:37.254Z,-0.47
2019-02-04T03:15:38.615Z,-0.52
2019-02-04T03:17:51.561Z,-0.56
2019-02-04T03:19:43.518Z,-0.59
2019-02-04T03:21:44.895Z,-0.58
2019-02-04T03:23:46.675Z,-0.62
2019-02-04T03:25:48.114Z,-0.68
2019-02-04T03:27:49.590Z,-0.60
2019-02-04T03:29:50.972Z,-0.60
2019-02-04T03:31:52.595Z,-0.63
2019-02-04T03:33:53.971Z,-0.56
2019-02-04T03:35:55.334Z,-0.59
2019-02-04T03:37:56.749Z,-0.72
2019-02-04T03:39:58.163Z,-0.63
2019-02-04T03:41:59.522Z,-0.74
2019-02-04T03:44:00.895Z,-0.69
2019-02-04T03:46:02.425Z,-0.79
2019-02-04T03:48:06.961Z,-0.80
2019-02-04T03:50:10.441Z,-0.77
2019-02-04T03:52:11.881Z,-0.79
2019-02-04T03:54:13.222Z,-0.83
2019-02-04T03:56:14.638Z,-0.73
2019-02-04T03:58:16.104Z,-0.74
2019-02-04T04:00:22.376Z,-0.80
2019-02-04T04:02:23.975Z,-0.86
2019-02-04T04:04:25.357Z,-0.81
2019-02-04T04:06:26.740Z,-0.92
2019-02-04T04:08:28.157Z,-0.90
2019-02-04T04:10:29.508Z,-0.89
2019-02-04T04:12:30.889Z,-0.89
2019-02-04T04:14:32.318Z,-0.86
2019-02-04T04:16:33.678Z,-0.96
2019-02-04T04:18:35.041Z,-0.81
2019-02-04T04:20:36.717Z,-0.88
2019-02-04T04:22:38.274Z,-0.51
2019-02-04T04:24:39.642Z,-0.44
2019-02-04T04:26:41.054Z,-0.61
2019-02-04T04:28:42.421Z,-0.70
2019-02-04T04:30:43.835Z,-0.63
2019-02-04T04:32:45.326Z,-0.60
2019-02-04T04:34:47.062Z,-0.56
2019-02-04T04:36:48.523Z,-0.30
2019-02-04T04:38:49.905Z,-0.15
2019-02-04T04:40:51.275Z,-0.02
2019-02-04T04:42:52.679Z,-0.05
2019-02-04T04:44:54.047Z,-0.05
2019-02-04T04:46:55.423Z,0.01
2019-02-04T04:48:56.842Z,-0.08
2019-02-04T04:50:58.208Z,0.02
2019-02-04T04:52:59.568Z,-0.04
2019-02-04T04:55:01.040Z,-0.08
2019-02-04T04:57:02.417Z,0.07
2019-02-04T04:59:03.980Z,0.14
2019-02-04T05:01:05.705Z,0.12
2019-02-04T05:03:07.067Z,0.21
2019-02-04T05:05:11.451Z,0.23
2019-02-04T05:07:12.864Z,0.26
2019-02-04T05:09:14.244Z,0.18
2019-02-04T05:11:15.615Z,0.16
2019-02-04T05:13:17.035Z,0.03
2019-02-04T05:15:24.777Z,0.03
2019-02-04T05:17:26.135Z,-0.05
2019-02-04T05:19:27.964Z,0.02
2019-02-04T05:21:29.574Z,-0.07
2019-02-04T05:23:30.963Z,-0.22
2019-02-04T05:25:32.317Z,-0.21
2019-02-04T05:27:33.723Z,-0.35
2019-02-04T05:29:35.098Z,-0.26
2019-02-04T05:31:36.570Z,-0.29
2019-02-04T05:33:38.054Z,-0.41
2019-02-04T05:35:39.411Z,-0.44
2019-02-04T05:37:40.983Z,-0.26
2019-02-04T05:39:42.404Z,-0.36
2019-02-04T05:41:43.771Z,-0.06
2019-02-04T05:43:45.124Z,0.08
2019-02-04T05:45:46.838Z,-0.07
2019-02-04T05:47:48.339Z,-0.11
2019-02-04T05:49:49.700Z,-0.14
2019-02-04T05:51:51.292Z,0.04
2019-02-04T05:53:52.659Z,-0.18
2019-02-04T05:55:54.012Z,-0.31
2019-02-04T05:57:55.425Z,-0.48
2019-02-04T05:59:56.794Z,-0.52
2019-02-04T06:01:58.249Z,-0.59
2019-02-04T06:03:59.647Z,-0.72
2019-02-04T06:06:01.028Z,-0.78
2019-02-04T06:08:03.021Z,-0.80
2019-02-04T06:10:08.323Z,-0.81
2019-02-04T06:12:10.043Z,-0.85
2019-02-04T06:14:11.396Z,-0.80
2019-02-04T06:16:12.777Z,-0.80
2019-02-04T06:18:14.172Z,-0.87
2019-02-04T06:20:21.243Z,-0.89
2019-02-04T06:22:22.764Z,-0.90
2019-02-04T06:24:24.126Z,-0.85
2019-02-04T06:26:25.535Z,-0.90
2019-02-04T06:28:26.890Z,-0.89
2019-02-04T06:30:28.553Z,-0.83
2019-02-04T06:32:29.957Z,-0.81
2019-02-04T06:34:31.333Z,-0.61
2019-02-04T06:36:32.689Z,-0.71
2019-02-04T06:38:34.102Z,-0.79
2019-02-04T06:40:35.456Z,-0.91
2019-02-04T06:42:36.827Z,-0.92
2019-02-04T06:44:38.401Z,-0.90
2019-02-04T06:46:39.763Z,-0.94
2019-02-04T06:48:41.123Z,-0.94
2019-02-04T06:50:42.546Z,-0.83
2019-02-04T06:52:44.111Z,-0.87
2019-02-04T06:54:45.462Z,-0.66
2019-02-04T06:56:47.186Z,-0.71
2019-02-04T06:58:48.544Z,-0.84
2019-02-04T07:00:49.951Z,-0.88
2019-02-04T07:02:51.428Z,-0.73
2019-02-04T07:04:53.093Z,-0.69
2019-02-04T07:06:54.497Z,-0.75
2019-02-04T07:08:55.855Z,-0.78
2019-02-04T07:10:57.228Z,-0.79
2019-02-04T07:12:58.916Z,-0.73
2019-02-04T07:15:00.291Z,-0.52
2019-02-04T07:17:01.652Z,-0.65
2019-02-04T07:19:03.344Z,-0.58
2019-02-04T07:21:04.732Z,-0.62
2019-02-04T07:23:06.097Z,-0.51
2019-02-04T07:25:11.671Z,-0.59
2019-02-04T07:27:13.070Z,-0.39
2019-02-04T07:29:14.437Z,-0.41
2019-02-04T07:31:16.150Z,-0.18
2019-02-04T07:33:17.515Z,-0.19
2019-02-04T07:35:19.479Z,-0.26
2019-02-04T07:37:20.898Z,-0.22
2019-02-04T07:39:22.566Z,-0.25
2019-02-04T07:41:23.933Z,-0.23
2019-02-04T07:43:25.342Z,-0.25
2019-02-04T07:45:27.001Z,-0.25
2019-02-04T07:47:28.363Z,-0.27
2019-02-04T07:49:35.161Z,-0.24
2019-02-04T07:51:33.085Z,-0.24
2019-02-04T07:53:34.463Z,-0.22
2019-02-04T07:55:35.835Z,-0.19
2019-02-04T07:57:37.446Z,-0.11
2019-02-04T07:59:38.812Z,-0.06
2019-02-04T08:01:40.178Z,-0.09
2019-02-04T08:03:41.567Z,0.21
2019-02-04T08:05:43.244Z,0.30
2019-02-04T08:07:44.641Z,0.54
2019-02-04T08:09:46.043Z,0.72
2019-02-04T08:11:47.502Z,0.74
2019-02-04T08:13:49.112Z,0.83
2019-02-04T08:15:50.475Z,1.03
2019-02-04T08:17:52.646Z,1.10
2019-02-04T08:19:54.090Z,1.34
2019-02-04T08:21:55.445Z,1.29
2019-02-04T08:23:56.816Z,1.42
2019-02-04T08:25:58.213Z,1.41
2019-02-04T08:27:59.664Z,1.49
2019-02-04T08:30:01.029Z,1.66
2019-02-04T08:32:03.233Z,1.66
2019-02-04T08:34:04.639Z,1.73
2019-02-04T08:36:06.404Z,1.79
2019-02-04T08:38:07.791Z,1.71
2019-02-04T08:40:13.715Z,1.93
2019-02-04T08:42:15.260Z,1.86
2019-02-04T08:44:16.619Z,2.08
2019-02-04T08:46:18.014Z,2.23
2019-02-04T08:48:19.376Z,2.26
2019-02-04T08:50:24.438Z,2.42
2019-02-04T08:52:25.956Z,2.48
2019-02-04T08:54:27.342Z,2.57
2019-02-04T08:56:28.828Z,2.57
2019-02-04T08:58:30.307Z,2.62
2019-02-04T09:00:31.784Z,2.88
2019-02-04T09:02:33.131Z,2.86
2019-02-04T09:04:37.036Z,2.89
2019-02-04T09:06:37.857Z,3.03
2019-02-04T09:08:39.236Z,3.07
2019-02-04T09:10:40.653Z,3.12
2019-02-04T09:12:42.055Z,3.22
2019-02-04T09:14:43.853Z,3.35
2019-02-04T09:16:45.211Z,3.39
2019-02-04T09:18:46.610Z,3.56
2019-02-04T09:20:47.970Z,3.61
2019-02-04T09:22:49.655Z,3.71
2019-02-04T09:24:51.035Z,3.71
2019-02-04T09:26:52.495Z,3.82
2019-02-04T09:28:53.936Z,3.70
2019-02-04T09:30:55.299Z,3.95
2019-02-04T09:32:58.255Z,3.88
2019-02-04T09:34:59.660Z,3.99
2019-02-04T09:37:01.130Z,3.95
2019-02-04T09:39:06.399Z,4.14
2019-02-04T09:41:08.220Z,4.34
2019-02-04T09:43:09.803Z,4.29
2019-02-04T09:45:15.172Z,4.25
2019-02-04T09:47:16.568Z,4.33
2019-02-04T09:49:18.224Z,4.41
2019-02-04T09:51:19.606Z,4.34
2019-02-04T09:53:20.972Z,4.43
2019-02-04T09:55:26.882Z,4.44
2019-02-04T09:57:28.265Z,4.60
2019-02-04T09:59:29.723Z,4.59
2019-02-04T10:01:31.191Z,4.68
2019-02-04T10:03:32.547Z,4.68
2019-02-04T10:05:34.650Z,4.83
2019-02-04T10:07:36.377Z,4.73
2019-02-04T10:09:37.782Z,4.84
2019-02-04T10:11:39.196Z,4.92
2019-02-04T10:13:40.578Z,5.13
2019-02-04T10:15:45.675Z,5.29
2019-02-04T10:17:46.828Z,5.19
2019-02-04T10:19:48.326Z,5.09
2019-02-04T10:21:49.855Z,5.19
2019-02-04T10:23:51.362Z,5.08
2019-02-04T10:25:53.174Z,5.30
2019-02-04T10:27:54.709Z,5.41
2019-02-04T10:29:56.146Z,5.33
2019-02-04T10:31:57.524Z,5.50
2019-02-04T10:33:59.193Z,5.72
2019-02-04T10:36:00.721Z,5.69
2019-02-04T10:38:02.532Z,5.74
2019-02-04T10:40:20.250Z,5.78
2019-02-04T10:42:21.641Z,5.90
2019-02-04T10:44:23.085Z,5.91
2019-02-04T10:46:24.441Z,5.96
2019-02-04T10:48:25.853Z,5.84
2019-02-04T10:50:45.743Z,6.06
2019-02-04T10:52:41.713Z,5.91
2019-02-04T10:54:43.069Z,5.97
2019-02-04T10:56:44.502Z,6.04
2019-02-04T10:58:45.961Z,6.08
2019-02-04T11:00:47.505Z,6.24
2019-02-04T11:02:49.161Z,6.12
2019-02-04T11:04:50.532Z,6.24
2019-02-04T11:06:51.994Z,6.10
2019-02-04T11:08:53.379Z,6.22
2019-02-04T11:10:55.058Z,6.14
2019-02-04T11:12:57.054Z,6.26
2019-02-04T11:14:58.398Z,6.44
2019-02-04T11:16:59.813Z,6.39
2019-02-04T11:19:01.170Z,6.59
2019-02-04T11:21:03.264Z,6.40
2019-02-04T11:23:06.999Z,6.62
2019-02-04T11:25:08.824Z,6.75
2019-02-04T11:27:10.370Z,6.65
2019-02-04T11:29:11.913Z,6.46
2019-02-04T11:31:13.416Z,6.45
2019-02-04T11:33:14.764Z,6.41
2019-02-04T11:35:16.566Z,6.41
2019-02-04T11:37:17.933Z,6.59
2019-02-04T11:39:19.596Z,6.86
2019-02-04T11:41:21.041Z,6.85
2019-02-04T11:43:22.513Z,6.95
2019-02-04T11:45:24.221Z,7.03
2019-02-04T11:47:25.919Z,7.08
2019-02-04T11:49:27.242Z,7.09
2019-02-04T11:51:28.608Z,7.18
2019-02-04T11:53:32.891Z,7.01
2019-02-04T11:55:33.388Z,7.19
2019-02-04T11:57:35.109Z,7.21
2019-02-04T11:59:36.471Z,7.08
2019-02-04T12:01:37.860Z,7.17
2019-02-04T12:03:39.227Z,7.11
2019-02-04T12:05:41.104Z,7.01
2019-02-04T12:07:42.480Z,7.08
2019-02-04T12:09:43.870Z,7.14
2019-02-04T12:11:48.227Z,7.09
2019-02-04T12:13:49.631Z,7.11
2019-02-04T12:15:51.997Z,6.97
2019-02-04T12:17:53.528Z,7.11
2019-02-04T12:19:54.996Z,6.89
2019-02-04T12:21:56.417Z,7.43
2019-02-04T12:23:57.799Z,7.41
2019-02-04T12:25:59.227Z,7.38
2019-02-04T12:28:00.651Z,7.31
2019-02-04T12:30:22.634Z,7.59
2019-02-04T12:32:24.000Z,7.40
2019-02-04T12:34:25.409Z,7.40
2019-02-04T12:36:26.946Z,7.57
2019-02-04T12:38:28.314Z,7.13
2019-02-04T12:40:29.675Z,7.26
2019-02-04T12:42:31.068Z,7.36
2019-02-04T12:44:32.448Z,7.60
2019-02-04T12:46:33.855Z,7.56
2019-02-04T12:48:35.247Z,7.26
2019-02-04T12:50:36.722Z,7.35
2019-02-04T12:52:38.177Z,7.14
2019-02-04T12:54:39.534Z,7.37
2019-02-04T12:56:40.863Z,7.42
2019-02-04T12:58:42.326Z,7.39
2019-02-04T13:00:45.575Z,7.30
2019-02-04T13:02:47.037Z,7.27
2019-02-04T13:04:48.431Z,7.30
2019-02-04T13:06:49.891Z,7.34
2019-02-04T13:08:51.271Z,7.40
2019-02-04T13:10:52.749Z,7.39
2019-02-04T13:12:54.350Z,7.58
2019-02-04T13:14:55.873Z,7.29
2019-02-04T13:16:57.240Z,7.34
2019-02-04T13:18:58.611Z,7.18
2019-02-04T13:21:00.004Z,7.41
2019-02-04T13:23:01.365Z,7.29
2019-02-04T13:25:07.256Z,7.58
2019-02-04T13:27:08.915Z,7.50
2019-02-04T13:29:10.340Z,7.53
2019-02-04T13:31:11.943Z,7.48
2019-02-04T13:33:13.303Z,7.62
2019-02-04T13:35:15.281Z,7.54
2019-02-04T13:37:16.745Z,7.54
2019-02-04T13:39:18.097Z,7.64
2019-02-04T13:41:19.863Z,7.54
2019-02-04T13:43:21.235Z,7.61
2019-02-04T13:45:22.803Z,7.61
2019-02-04T13:47:24.216Z,7.63
2019-02-04T13:49:25.575Z,7.23
2019-02-04T13:51:26.950Z,7.20
2019-02-04T13:53:29.757Z,7.32
2019-02-04T13:55:33.927Z,7.36
2019-02-04T13:57:35.308Z,7.19
2019-02-04T13:59:36.719Z,7.24
2019-02-04T14:01:38.287Z,7.48
2019-02-04T14:03:39.650Z,7.37
2019-02-04T14:05:41.008Z,7.55
2019-02-04T14:07:42.436Z,7.35
2019-02-04T14:09:44.095Z,7.25
2019-02-04T14:11:45.760Z,7.23
2019-02-04T14:13:47.244Z,7.13
2019-02-04T14:15:48.681Z,7.34
2019-02-04T14:17:50.037Z,7.10
2019-02-04T14:19:51.507Z,6.78
2019-02-04T14:21:52.922Z,7.14
2019-02-04T14:23:54.288Z,6.62
2019-02-04T14:25:55.649Z,6.95
2019-02-04T14:27:57.941Z,6.68
2019-02-04T14:29:59.317Z,6.90
2019-02-04T14:32:00.677Z,6.98
2019-02-04T14:34:02.186Z,6.74
2019-02-04T14:36:03.551Z,7.02
2019-02-04T14:38:05.582Z,6.96
2019-02-04T14:40:18.106Z,6.90
2019-02-04T14:42:13.776Z,6.93
2019-02-04T14:44:18.449Z,6.86
2019-02-04T14:46:28.578Z,7.08
2019-02-04T14:48:50.525Z,6.98
2019-02-04T14:51:24.424Z,6.31
2019-02-04T14:53:43.441Z,6.64
2019-02-04T14:55:59.412Z,5.77
2019-02-04T14:58:06.474Z,6.12
2019-02-04T15:00:42.688Z,6.16
2019-02-04T15:02:52.639Z,5.97
2019-02-04T15:04:59.716Z,5.80
2019-02-04T15:07:23.656Z,5.56
2019-02-04T15:10:03.262Z,5.60
2019-02-04T15:12:16.429Z,5.55
2019-02-04T15:14:46.940Z,5.34
2019-02-04T15:17:00.059Z,5.30
2019-02-04T15:19:25.052Z,5.11
2019-02-04T15:22:04.282Z,5.32
2019-02-04T15:24:40.927Z,5.04
2019-02-04T15:27:13.359Z,4.76
2019-02-04T15:29:22.962Z,4.82
2019-02-04T15:31:44.555Z,4.84
2019-02-04T15:33:57.493Z,4.85
2019-02-04T15:36:22.427Z,4.77
2019-02-04T15:38:29.646Z,4.78
2019-02-04T15:40:42.041Z,4.79
2019-02-04T15:43:23.156Z,4.48
2019-02-04T15:45:42.857Z,4.64
2019-02-04T15:47:52.984Z,4.49
2019-02-04T15:50:21.112Z,4.51
2019-02-04T15:52:22.705Z,4.61
2019-02-04T15:54:24.297Z,4.30
2019-02-04T15:56:25.652Z,4.33
2019-02-04T15:58:27.171Z,4.31
2019-02-04T16:00:28.656Z,4.11
2019-02-04T16:02:30.028Z,4.07
2019-02-04T16:04:34.714Z,4.27
2019-02-04T16:06:36.075Z,3.94
2019-02-04T16:08:37.455Z,3.92
2019-02-04T16:10:39.316Z,3.83
2019-02-04T16:12:40.675Z,3.80
2019-02-04T16:14:42.048Z,3.95
2019-02-04T16:16:43.608Z,3.94
2019-02-04T16:18:45.167Z,3.87
2019-02-04T16:20:46.540Z,3.74
2019-02-04T16:22:57.950Z,3.63
2019-02-04T16:24:51.582Z,3.65
2019-02-04T16:26:52.948Z,3.50
2019-02-04T16:28:54.376Z,3.57
2019-02-04T16:30:55.789Z,3.52
2019-02-04T16:32:57.150Z,3.52
2019-02-04T16:34:58.575Z,3.52
2019-02-04T16:37:00.396Z,3.47
2019-02-04T16:39:03.981Z,3.37
2019-02-04T16:41:05.341Z,3.40
2019-02-04T16:43:06.710Z,3.37
2019-02-04T16:45:12.847Z,3.18
2019-02-04T16:47:14.225Z,3.20
2019-02-04T16:49:15.615Z,3.08
2019-02-04T16:51:17.020Z,3.02
2019-02-04T16:53:18.390Z,2.88
2019-02-04T16:55:19.855Z,2.85
2019-02-04T16:57:21.292Z,2.88
2019-02-04T16:59:22.655Z,2.97
2019-02-04T17:01:24.016Z,3.03
2019-02-04T17:03:25.850Z,2.99
2019-02-04T17:05:27.409Z,2.90
2019-02-04T17:07:28.772Z,2.98
2019-02-04T17:09:30.347Z,2.99
2019-02-04T17:11:32.100Z,3.08
2019-02-04T17:13:33.467Z,2.92
2019-02-04T17:15:35.015Z,2.81
2019-02-04T17:17:36.381Z,2.90
2019-02-04T17:19:37.958Z,2.81
2019-02-04T17:21:39.594Z,2.74
2019-02-04T17:23:40.980Z,2.81
2019-02-04T17:25:42.326Z,2.74
2019-02-04T17:27:43.868Z,2.72
2019-02-04T17:29:45.329Z,2.80
2019-02-04T17:31:46.783Z,2.63
2019-02-04T17:33:48.207Z,2.50
2019-02-04T17:35:49.575Z,2.64
2019-02-04T17:37:50.945Z,2.41
2019-02-04T17:39:52.494Z,2.54
2019-02-04T17:41:54.071Z,2.46
2019-02-04T17:43:55.538Z,2.40
2019-02-04T17:45:57.447Z,2.48
2019-02-04T17:47:58.817Z,2.45
2019-02-04T17:50:00.325Z,2.30
2019-02-04T17:52:01.840Z,2.44
2019-02-04T17:54:05.228Z,2.56
2019-02-04T17:56:06.883Z,2.55
2019-02-04T17:58:08.410Z,2.54
2019-02-04T18:00:21.040Z,2.55
2019-02-04T18:02:22.460Z,2.52
2019-02-04T18:04:23.979Z,2.42
2019-02-04T18:06:25.668Z,2.56
2019-02-04T18:08:27.055Z,2.43
2019-02-04T18:10:28.411Z,2.38
2019-02-04T18:12:29.828Z,2.40
2019-02-04T18:14:31.246Z,2.40
2019-02-04T18:16:32.725Z,2.41
2019-02-04T18:18:34.084Z,2.53
2019-02-04T18:20:35.569Z,2.45
2019-02-04T18:22:38.834Z,2.48
2019-02-04T18:24:40.200Z,2.49
2019-02-04T18:26:41.915Z,2.42
2019-02-04T18:28:43.279Z,2.32
2019-02-04T18:30:44.645Z,2.45
2019-02-04T18:32:46.381Z,2.29
2019-02-04T18:34:47.759Z,2.34
2019-02-04T18:36:49.319Z,2.34
2019-02-04T18:38:50.737Z,2.32
2019-02-04T18:40:52.103Z,2.44
2019-02-04T18:42:53.573Z,2.33
2019-02-04T18:44:55.098Z,2.28
2019-02-04T18:46:56.462Z,2.32
2019-02-04T18:48:57.828Z,2.32
2019-02-04T18:50:59.245Z,2.20
2019-02-04T18:53:00.688Z,2.20
2019-02-04T18:55:04.266Z,2.16
2019-02-04T18:57:05.644Z,2.29
2019-02-04T18:59:07.476Z,2.29
2019-02-04T19:01:08.939Z,2.32
2019-02-04T19:03:17.457Z,2.31
2019-02-04T19:05:14.322Z,2.22
2019-02-04T19:07:15.785Z,2.20
2019-02-04T19:09:17.167Z,2.33
2019-02-04T19:11:18.589Z,2.20
2019-02-04T19:13:19.950Z,2.17
2019-02-04T19:15:26.894Z,2.25
2019-02-04T19:17:28.328Z,2.12
2019-02-04T19:19:29.743Z,2.05
2019-02-04T19:21:31.108Z,2.12
2019-02-04T19:23:32.487Z,2.03
2019-02-04T19:25:34.344Z,2.04
2019-02-04T19:27:35.812Z,2.04
2019-02-04T19:29:37.174Z,2.08
2019-02-04T19:31:38.605Z,2.04
2019-02-04T19:33:40.294Z,2.09
2019-02-04T19:35:41.653Z,2.04
2019-02-04T19:37:43.105Z,2.07
2019-02-04T19:39:44.461Z,1.99
2019-02-04T19:41:45.829Z,2.07
2019-02-04T19:43:47.254Z,2.02
2019-02-04T19:45:48.642Z,2.00
2019-02-04T19:47:51.125Z,2.01
2019-02-04T19:49:52.555Z,1.89
2019-02-04T19:51:55.252Z,1.85
2019-02-04T19:53:56.792Z,1.85
2019-02-04T19:55:58.469Z,1.92
2019-02-04T19:57:59.838Z,1.97
2019-02-04T20:00:05.022Z,1.91
2019-02-04T20:02:06.400Z,1.97
2019-02-04T20:04:07.754Z,1.91
2019-02-04T20:06:09.473Z,1.92
2019-02-04T20:08:10.918Z,1.88
2019-02-04T20:10:15.963Z,1.83
2019-02-04T20:12:17.493Z,1.93
2019-02-04T20:14:18.879Z,1.79
2019-02-04T20:16:20.245Z,1.88
2019-02-04T20:18:21.788Z,1.88
2019-02-04T20:20:24.168Z,1.82
2019-02-04T20:22:25.518Z,1.77
2019-02-04T20:24:33.237Z,1.87
2019-02-04T20:26:30.488Z,2.01
2019-02-04T20:28:31.872Z,2.02
2019-02-04T20:30:46.114Z,1.99
2019-02-04T20:32:46.386Z,1.98
2019-02-04T20:34:47.832Z,1.98
2019-02-04T20:36:49.566Z,1.85
2019-02-04T20:38:51.037Z,1.93
2019-02-04T20:40:52.411Z,1.85
2019-02-04T20:42:54.063Z,1.77
2019-02-04T20:44:55.720Z,1.91
2019-02-04T20:46:57.108Z,1.86
2019-02-04T20:49:00.442Z,1.95
2019-02-04T20:51:01.823Z,1.91
2019-02-04T20:53:03.588Z,1.90
2019-02-04T20:55:05.527Z,2.00
2019-02-04T20:57:06.892Z,1.89
2019-02-04T20:59:08.410Z,2.03
2019-02-04T21:01:09.844Z,1.95
2019-02-04T21:03:11.306Z,1.86
2019-02-04T21:05:13.335Z,2.04
2019-02-04T21:07:14.701Z,1.95
2019-02-04T21:09:16.068Z,1.99
2019-02-04T21:11:17.984Z,1.90
2019-02-04T21:13:19.361Z,2.03
2019-02-04T21:15:22.242Z,2.10
2019-02-04T21:17:23.655Z,1.98
2019-02-04T21:19:25.331Z,2.05
2019-02-04T21:21:26.770Z,2.06
2019-02-04T21:23:28.143Z,2.12
2019-02-04T21:25:29.514Z,2.01
2019-02-04T21:27:30.951Z,2.07
2019-02-04T21:29:32.729Z,2.04
2019-02-04T21:31:34.092Z,2.15
2019-02-04T21:33:35.513Z,2.03
2019-02-04T21:35:37.063Z,2.13
2019-02-04T21:37:38.431Z,2.11
2019-02-04T21:39:39.894Z,2.08
2019-02-04T21:41:41.257Z,1.99
2019-02-04T21:43:42.617Z,2.00
2019-02-04T21:45:44.469Z,1.97
2019-02-04T21:47:46.347Z,1.97
2019-02-04T21:49:47.710Z,2.00
2019-02-04T21:51:49.139Z,2.06
2019-02-04T21:53:50.712Z,2.02
2019-02-04T21:55:53.205Z,2.10
2019-02-04T21:57:54.738Z,2.08
2019-02-04T21:59:56.114Z,2.07
2019-02-04T22:01:57.469Z,2.00
2019-02-04T22:03:58.905Z,2.05
2019-02-04T22:06:00.270Z,1.99
2019-02-04T22:08:01.636Z,2.11
2019-02-04T22:10:11.602Z,2.07
2019-02-04T22:12:12.981Z,2.07
2019-02-04T22:14:14.355Z,2.01
2019-02-04T22:16:16.024Z,2.00
2019-02-04T22:18:17.407Z,2.05
2019-02-04T22:20:19.566Z,2.05
2019-02-04T22:22:22.037Z,1.96
2019-02-04T22:24:23.406Z,1.96
2019-02-04T22:26:24.779Z,2.01
2019-02-04T22:28:26.461Z,2.08
2019-02-04T22:30:29.228Z,2.10
2019-02-04T22:32:30.593Z,2.12
2019-02-04T22:34:32.038Z,2.00
2019-02-04T22:36:33.587Z,1.97
2019-02-04T22:38:34.990Z,2.06
2019-02-04T22:40:36.504Z,2.00
2019-02-04T22:42:37.857Z,2.11
2019-02-04T22:44:39.222Z,2.08
2019-02-04T22:46:40.640Z,2.04
2019-02-04T22:48:43.095Z,2.08
2019-02-04T22:50:44.644Z,2.06
2019-02-04T22:52:46.140Z,2.09
2019-02-04T22:54:48.243Z,2.14
2019-02-04T22:56:49.616Z,2.10
2019-02-04T22:58:52.288Z,2.10
2019-02-04T23:01:02.372Z,2.08
2019-02-04T23:03:03.734Z,1.99
2019-02-04T23:05:05.595Z,2.06
2019-02-04T23:07:07.314Z,2.06
2019-02-04T23:09:08.812Z,2.09
2019-02-04T23:11:10.268Z,2.01
2019-02-04T23:13:12.090Z,1.93
2019-02-04T23:15:13.447Z,1.95
2019-02-04T23:17:14.779Z,1.91
2019-02-04T23:19:16.189Z,1.81
2019-02-04T23:21:17.592Z,1.79
2019-02-04T23:23:19.087Z,1.90
2019-02-04T23:25:20.473Z,1.83
2019-02-04T23:27:21.879Z,1.86
2019-02-04T23:29:23.245Z,1.79
2019-02-04T23:31:24.614Z,1.86
2019-02-04T23:33:33.886Z,1.78
2019-02-04T23:35:29.287Z,1.78
2019-02-04T23:37:30.647Z,1.71
2019-02-04T23:39:32.369Z,1.68
2019-02-04T23:41:33.869Z,1.67
2019-02-04T23:43:35.236Z,1.73
2019-02-04T23:45:36.608Z,1.65
2019-02-04T23:47:38.036Z,1.53
2019-02-04T23:49:39.711Z,1.68
2019-02-04T23:51:41.082Z,1.71
2019-02-04T23:53:42.480Z,1.70
2019-02-04T23:55:54.122Z,1.62
2019-02-04T23:57:47.472Z,1.67
2019-02-04T23:59:48.827Z,1.54
